sensor_id;sensor_type;location;lat;lon;timestamp;temperature;humidity
74364;DHT22;62797;49.740;10.154;2022-10-16T00:00:31;15.70;82.60
74364;DHT22;62797;49.740;10.154;2022-10-16T00:02:57;15.70;82.60
74364;DHT22;62797;49.740;10.154;2022-10-16T00:05:22;15.70;82.50
74364;DHT22;62797;49.740;10.154;2022-10-16T00:07:48;15.70;82.70
74364;DHT22;62797;49.740;10.154;2022-10-16T00:10:13;15.70;82.90
74364;DHT22;62797;49.740;10.154;2022-10-16T00:12:39;15.70;82.80
74364;DHT22;62797;49.740;10.154;2022-10-16T00:15:05;15.80;82.70
74364;DHT22;62797;49.740;10.154;2022-10-16T00:17:31;15.80;82.90
74364;DHT22;62797;49.740;10.154;2022-10-16T00:19:56;15.70;82.50
74364;DHT22;62797;49.740;10.154;2022-10-16T00:22:22;15.80;82.30
74364;DHT22;62797;49.740;10.154;2022-10-16T00:24:48;15.70;82.20
74364;DHT22;62797;49.740;10.154;2022-10-16T00:27:13;15.70;82.50
74364;DHT22;62797;49.740;10.154;2022-10-16T00:29:39;15.70;82.70
74364;DHT22;62797;49.740;10.154;2022-10-16T00:32:04;15.70;82.90
74364;DHT22;62797;49.740;10.154;2022-10-16T00:34:30;15.80;82.90
74364;DHT22;62797;49.740;10.154;2022-10-16T00:36:55;15.80;82.70
74364;DHT22;62797;49.740;10.154;2022-10-16T00:39:21;15.80;82.70
74364;DHT22;62797;49.740;10.154;2022-10-16T00:41:47;15.80;82.50
74364;DHT22;62797;49.740;10.154;2022-10-16T00:47:28;15.80;82.10
74364;DHT22;62797;49.740;10.154;2022-10-16T00:50:30;15.70;82.80
74364;DHT22;62797;49.740;10.154;2022-10-16T00:52:57;15.70;82.80
74364;DHT22;62797;49.740;10.154;2022-10-16T00:55:24;15.70;82.80
74364;DHT22;62797;49.740;10.154;2022-10-16T00:57:51;15.70;82.50
74364;DHT22;62797;49.740;10.154;2022-10-16T01:00:23;15.70;82.10
74364;DHT22;62797;49.740;10.154;2022-10-16T01:02:57;15.60;82.20
74364;DHT22;62797;49.740;10.154;2022-10-16T01:05:27;15.60;82.70
74364;DHT22;62797;49.740;10.154;2022-10-16T01:08:08;15.60;82.90
74364;DHT22;62797;49.740;10.154;2022-10-16T01:13:57;15.60;82.40
74364;DHT22;62797;49.740;10.154;2022-10-16T01:16:48;15.60;82.90
74364;DHT22;62797;49.740;10.154;2022-10-16T01:21:58;15.70;82.90
74364;DHT22;62797;49.740;10.154;2022-10-16T01:24:39;15.70;82.90
74364;DHT22;62797;49.740;10.154;2022-10-16T01:30:04;15.70;82.80
74364;DHT22;62797;49.740;10.154;2022-10-16T01:32:57;15.70;82.60
74364;DHT22;62797;49.740;10.154;2022-10-16T01:35:40;15.70;82.60
74364;DHT22;62797;49.740;10.154;2022-10-16T01:38:26;15.70;82.40
74364;DHT22;62797;49.740;10.154;2022-10-16T01:41:01;15.70;82.50
74364;DHT22;62797;49.740;10.154;2022-10-16T01:43:33;15.60;82.90
74364;DHT22;62797;49.740;10.154;2022-10-16T01:46:01;15.60;83.10
74364;DHT22;62797;49.740;10.154;2022-10-16T01:48:29;15.60;83.00
74364;DHT22;62797;49.740;10.154;2022-10-16T01:51:10;15.60;83.00
74364;DHT22;62797;49.740;10.154;2022-10-16T01:53:36;15.60;83.60
74364;DHT22;62797;49.740;10.154;2022-10-16T01:56:05;15.60;82.90
74364;DHT22;62797;49.740;10.154;2022-10-16T01:58:36;15.60;83.00
74364;DHT22;62797;49.740;10.154;2022-10-16T02:01:05;15.60;82.50
74364;DHT22;62797;49.740;10.154;2022-10-16T02:03:33;15.60;82.70
74364;DHT22;62797;49.740;10.154;2022-10-16T02:06:02;15.60;82.70
74364;DHT22;62797;49.740;10.154;2022-10-16T02:08:28;15.70;82.80
74364;DHT22;62797;49.740;10.154;2022-10-16T02:10:58;15.70;82.30
74364;DHT22;62797;49.740;10.154;2022-10-16T02:13:36;15.70;82.00
74364;DHT22;62797;49.740;10.154;2022-10-16T02:16:03;15.70;82.00
74364;DHT22;62797;49.740;10.154;2022-10-16T02:18:29;15.70;82.40
74364;DHT22;62797;49.740;10.154;2022-10-16T02:21:18;15.70;82.30
74364;DHT22;62797;49.740;10.154;2022-10-16T02:23:55;15.70;82.10
74364;DHT22;62797;49.740;10.154;2022-10-16T02:26:32;15.70;82.10
74364;DHT22;62797;49.740;10.154;2022-10-16T02:29:02;15.70;81.80
74364;DHT22;62797;49.740;10.154;2022-10-16T02:31:34;15.70;81.80
74364;DHT22;62797;49.740;10.154;2022-10-16T02:34:02;15.80;82.30
74364;DHT22;62797;49.740;10.154;2022-10-16T02:36:30;15.80;82.20
74364;DHT22;62797;49.740;10.154;2022-10-16T02:38:56;15.80;82.30
74364;DHT22;62797;49.740;10.154;2022-10-16T02:41:23;15.80;82.10
74364;DHT22;62797;49.740;10.154;2022-10-16T02:43:49;15.80;82.10
74364;DHT22;62797;49.740;10.154;2022-10-16T02:46:15;15.80;81.60
74364;DHT22;62797;49.740;10.154;2022-10-16T02:48:40;15.70;82.30
74364;DHT22;62797;49.740;10.154;2022-10-16T02:51:06;15.80;82.30
74364;DHT22;62797;49.740;10.154;2022-10-16T02:53:32;15.80;82.40
74364;DHT22;62797;49.740;10.154;2022-10-16T02:55:57;15.80;82.10
74364;DHT22;62797;49.740;10.154;2022-10-16T02:58:23;15.80;81.80
74364;DHT22;62797;49.740;10.154;2022-10-16T03:00:48;15.80;81.90
74364;DHT22;62797;49.740;10.154;2022-10-16T03:03:14;15.80;81.80
74364;DHT22;62797;49.740;10.154;2022-10-16T03:05:39;15.80;81.90
74364;DHT22;62797;49.740;10.154;2022-10-16T03:08:05;15.80;82.00
74364;DHT22;62797;49.740;10.154;2022-10-16T03:10:30;15.80;81.90
74364;DHT22;62797;49.740;10.154;2022-10-16T03:12:56;15.80;81.60
74364;DHT22;62797;49.740;10.154;2022-10-16T03:15:21;15.80;81.80
74364;DHT22;62797;49.740;10.154;2022-10-16T03:17:47;15.80;81.40
74364;DHT22;62797;49.740;10.154;2022-10-16T03:20:13;15.80;81.40
74364;DHT22;62797;49.740;10.154;2022-10-16T03:22:38;15.80;81.50
74364;DHT22;62797;49.740;10.154;2022-10-16T03:25:04;15.80;81.30
74364;DHT22;62797;49.740;10.154;2022-10-16T03:27:30;15.90;81.40
74364;DHT22;62797;49.740;10.154;2022-10-16T03:29:55;15.90;81.30
74364;DHT22;62797;49.740;10.154;2022-10-16T03:32:21;15.80;81.30
74364;DHT22;62797;49.740;10.154;2022-10-16T03:34:47;15.80;81.10
74364;DHT22;62797;49.740;10.154;2022-10-16T03:37:12;15.80;80.90
74364;DHT22;62797;49.740;10.154;2022-10-16T03:39:38;15.80;81.10
74364;DHT22;62797;49.740;10.154;2022-10-16T03:42:03;15.80;80.80
74364;DHT22;62797;49.740;10.154;2022-10-16T03:44:29;15.80;81.00
74364;DHT22;62797;49.740;10.154;2022-10-16T03:46:55;15.80;80.80
74364;DHT22;62797;49.740;10.154;2022-10-16T03:49:21;15.70;80.90
74364;DHT22;62797;49.740;10.154;2022-10-16T03:51:46;15.70;81.30
74364;DHT22;62797;49.740;10.154;2022-10-16T03:54:12;15.60;81.20
74364;DHT22;62797;49.740;10.154;2022-10-16T03:56:38;15.60;81.30
74364;DHT22;62797;49.740;10.154;2022-10-16T03:59:03;15.60;81.30
74364;DHT22;62797;49.740;10.154;2022-10-16T04:01:29;15.60;81.50
74364;DHT22;62797;49.740;10.154;2022-10-16T04:03:54;15.60;81.40
74364;DHT22;62797;49.740;10.154;2022-10-16T04:06:20;15.60;81.70
74364;DHT22;62797;49.740;10.154;2022-10-16T04:08:46;15.60;81.20
74364;DHT22;62797;49.740;10.154;2022-10-16T04:11:11;15.60;81.30
74364;DHT22;62797;49.740;10.154;2022-10-16T04:13:37;15.60;81.50
74364;DHT22;62797;49.740;10.154;2022-10-16T04:16:02;15.50;81.50
74364;DHT22;62797;49.740;10.154;2022-10-16T04:18:28;15.60;81.50
74364;DHT22;62797;49.740;10.154;2022-10-16T04:20:54;15.60;81.40
74364;DHT22;62797;49.740;10.154;2022-10-16T04:23:20;15.60;81.50
74364;DHT22;62797;49.740;10.154;2022-10-16T04:25:46;15.60;81.40
74364;DHT22;62797;49.740;10.154;2022-10-16T04:28:11;15.60;81.20
74364;DHT22;62797;49.740;10.154;2022-10-16T04:30:40;15.60;81.20
74364;DHT22;62797;49.740;10.154;2022-10-16T04:33:07;15.60;81.20
74364;DHT22;62797;49.740;10.154;2022-10-16T04:35:33;15.60;81.20
74364;DHT22;62797;49.740;10.154;2022-10-16T04:37:59;15.60;81.30
74364;DHT22;62797;49.740;10.154;2022-10-16T04:40:24;15.70;81.10
74364;DHT22;62797;49.740;10.154;2022-10-16T04:42:50;15.70;81.10
74364;DHT22;62797;49.740;10.154;2022-10-16T04:45:15;15.70;81.30
74364;DHT22;62797;49.740;10.154;2022-10-16T04:47:41;15.60;81.30
74364;DHT22;62797;49.740;10.154;2022-10-16T04:50:07;15.70;81.60
74364;DHT22;62797;49.740;10.154;2022-10-16T04:52:33;15.70;81.40
74364;DHT22;62797;49.740;10.154;2022-10-16T04:54:59;15.70;81.30
74364;DHT22;62797;49.740;10.154;2022-10-16T04:57:28;15.70;81.30
74364;DHT22;62797;49.740;10.154;2022-10-16T04:59:53;15.70;81.30
74364;DHT22;62797;49.740;10.154;2022-10-16T05:02:19;15.80;81.00
74364;DHT22;62797;49.740;10.154;2022-10-16T05:04:44;15.70;81.00
74364;DHT22;62797;49.740;10.154;2022-10-16T05:07:10;15.80;80.50
74364;DHT22;62797;49.740;10.154;2022-10-16T05:09:35;15.70;81.00
74364;DHT22;62797;49.740;10.154;2022-10-16T05:12:01;15.80;80.70
74364;DHT22;62797;49.740;10.154;2022-10-16T05:14:28;15.70;81.10
74364;DHT22;62797;49.740;10.154;2022-10-16T05:16:54;15.80;81.30
74364;DHT22;62797;49.740;10.154;2022-10-16T05:19:19;15.80;81.20
74364;DHT22;62797;49.740;10.154;2022-10-16T05:21:45;15.80;81.20
74364;DHT22;62797;49.740;10.154;2022-10-16T05:24:11;15.80;81.20
74364;DHT22;62797;49.740;10.154;2022-10-16T05:26:36;15.80;81.60
74364;DHT22;62797;49.740;10.154;2022-10-16T05:29:02;15.80;80.90
74364;DHT22;62797;49.740;10.154;2022-10-16T05:31:28;15.80;80.70
74364;DHT22;62797;49.740;10.154;2022-10-16T05:33:58;15.80;80.50
74364;DHT22;62797;49.740;10.154;2022-10-16T05:36:24;15.80;80.30
74364;DHT22;62797;49.740;10.154;2022-10-16T05:38:50;15.80;80.20
74364;DHT22;62797;49.740;10.154;2022-10-16T05:41:16;15.80;80.20
74364;DHT22;62797;49.740;10.154;2022-10-16T05:43:47;15.80;80.50
74364;DHT22;62797;49.740;10.154;2022-10-16T05:46:13;15.80;80.70
74364;DHT22;62797;49.740;10.154;2022-10-16T05:48:38;15.80;80.70
74364;DHT22;62797;49.740;10.154;2022-10-16T05:51:06;15.80;80.40
74364;DHT22;62797;49.740;10.154;2022-10-16T05:53:34;15.80;80.30
74364;DHT22;62797;49.740;10.154;2022-10-16T05:56:01;15.80;80.40
74364;DHT22;62797;49.740;10.154;2022-10-16T05:58:32;15.80;80.50
74364;DHT22;62797;49.740;10.154;2022-10-16T06:01:00;15.80;80.50
74364;DHT22;62797;49.740;10.154;2022-10-16T06:03:26;15.80;80.70
74364;DHT22;62797;49.740;10.154;2022-10-16T06:05:52;15.80;80.60
74364;DHT22;62797;49.740;10.154;2022-10-16T06:08:19;15.70;80.60
74364;DHT22;62797;49.740;10.154;2022-10-16T06:10:45;15.80;80.70
74364;DHT22;62797;49.740;10.154;2022-10-16T06:13:12;15.80;80.60
74364;DHT22;62797;49.740;10.154;2022-10-16T06:15:39;15.70;80.40
74364;DHT22;62797;49.740;10.154;2022-10-16T06:18:07;15.80;80.40
74364;DHT22;62797;49.740;10.154;2022-10-16T06:20:33;15.80;80.50
74364;DHT22;62797;49.740;10.154;2022-10-16T06:22:58;15.70;80.40
74364;DHT22;62797;49.740;10.154;2022-10-16T06:25:24;15.80;80.20
74364;DHT22;62797;49.740;10.154;2022-10-16T06:27:49;15.80;80.10
74364;DHT22;62797;49.740;10.154;2022-10-16T06:30:15;15.80;80.00
74364;DHT22;62797;49.740;10.154;2022-10-16T06:32:40;15.80;80.40
74364;DHT22;62797;49.740;10.154;2022-10-16T06:35:06;15.80;80.20
74364;DHT22;62797;49.740;10.154;2022-10-16T06:37:32;15.80;80.40
74364;DHT22;62797;49.740;10.154;2022-10-16T06:39:57;15.80;80.50
74364;DHT22;62797;49.740;10.154;2022-10-16T06:42:23;15.80;80.40
74364;DHT22;62797;49.740;10.154;2022-10-16T06:44:48;15.90;80.60
74364;DHT22;62797;49.740;10.154;2022-10-16T06:47:14;15.80;80.10
74364;DHT22;62797;49.740;10.154;2022-10-16T06:49:39;15.80;80.10
74364;DHT22;62797;49.740;10.154;2022-10-16T06:52:05;15.80;80.10
74364;DHT22;62797;49.740;10.154;2022-10-16T06:54:30;15.80;79.90
74364;DHT22;62797;49.740;10.154;2022-10-16T06:56:56;15.90;79.80
74364;DHT22;62797;49.740;10.154;2022-10-16T06:59:22;15.90;79.40
74364;DHT22;62797;49.740;10.154;2022-10-16T07:01:48;15.90;79.30
74364;DHT22;62797;49.740;10.154;2022-10-16T07:04:13;15.90;79.30
74364;DHT22;62797;49.740;10.154;2022-10-16T07:06:39;16.00;79.40
74364;DHT22;62797;49.740;10.154;2022-10-16T07:09:07;16.00;79.40
74364;DHT22;62797;49.740;10.154;2022-10-16T07:11:35;16.00;78.80
74364;DHT22;62797;49.740;10.154;2022-10-16T07:14:02;16.00;78.70
74364;DHT22;62797;49.740;10.154;2022-10-16T07:16:29;16.10;79.30
74364;DHT22;62797;49.740;10.154;2022-10-16T07:19:00;16.20;79.30
74364;DHT22;62797;49.740;10.154;2022-10-16T07:21:29;16.20;79.10
74364;DHT22;62797;49.740;10.154;2022-10-16T07:23:57;16.20;79.10
74364;DHT22;62797;49.740;10.154;2022-10-16T07:26:23;16.20;79.70
74364;DHT22;62797;49.740;10.154;2022-10-16T07:28:49;16.10;80.10
74364;DHT22;62797;49.740;10.154;2022-10-16T07:31:17;16.20;79.90
74364;DHT22;62797;49.740;10.154;2022-10-16T07:33:43;16.20;80.00
74364;DHT22;62797;49.740;10.154;2022-10-16T07:36:10;16.20;79.70
74364;DHT22;62797;49.740;10.154;2022-10-16T07:38:36;16.20;79.60
74364;DHT22;62797;49.740;10.154;2022-10-16T07:41:04;16.20;79.50
74364;DHT22;62797;49.740;10.154;2022-10-16T07:43:30;16.20;80.00
74364;DHT22;62797;49.740;10.154;2022-10-16T07:45:56;16.30;80.90
74364;DHT22;62797;49.740;10.154;2022-10-16T07:48:23;16.30;81.50
74364;DHT22;62797;49.740;10.154;2022-10-16T07:50:49;16.40;81.60
74364;DHT22;62797;49.740;10.154;2022-10-16T07:53:15;16.50;81.30
74364;DHT22;62797;49.740;10.154;2022-10-16T07:55:41;16.50;81.70
74364;DHT22;62797;49.740;10.154;2022-10-16T07:58:07;16.60;82.10
74364;DHT22;62797;49.740;10.154;2022-10-16T08:00:33;16.70;82.00
74364;DHT22;62797;49.740;10.154;2022-10-16T08:03:00;16.70;82.40
74364;DHT22;62797;49.740;10.154;2022-10-16T08:05:27;16.70;82.80
74364;DHT22;62797;49.740;10.154;2022-10-16T08:07:53;16.80;82.80
74364;DHT22;62797;49.740;10.154;2022-10-16T08:10:20;16.80;82.60
74364;DHT22;62797;49.740;10.154;2022-10-16T08:12:46;16.80;82.90
74364;DHT22;62797;49.740;10.154;2022-10-16T08:15:12;16.80;82.90
74364;DHT22;62797;49.740;10.154;2022-10-16T08:17:38;16.90;82.80
74364;DHT22;62797;49.740;10.154;2022-10-16T08:20:04;16.80;82.70
74364;DHT22;62797;49.740;10.154;2022-10-16T08:22:29;16.90;83.40
74364;DHT22;62797;49.740;10.154;2022-10-16T08:24:55;16.90;83.20
74364;DHT22;62797;49.740;10.154;2022-10-16T08:27:21;17.00;84.40
74364;DHT22;62797;49.740;10.154;2022-10-16T08:29:48;17.10;83.80
74364;DHT22;62797;49.740;10.154;2022-10-16T08:32:13;17.10;84.10
74364;DHT22;62797;49.740;10.154;2022-10-16T08:34:39;17.20;83.60
74364;DHT22;62797;49.740;10.154;2022-10-16T08:37:04;17.30;83.70
74364;DHT22;62797;49.740;10.154;2022-10-16T08:39:30;17.30;82.50
74364;DHT22;62797;49.740;10.154;2022-10-16T08:42:41;17.30;81.80
74364;DHT22;62797;49.740;10.154;2022-10-16T08:45:21;17.40;82.20
74364;DHT22;62797;49.740;10.154;2022-10-16T08:50:42;17.40;81.50
74364;DHT22;62797;49.740;10.154;2022-10-16T08:53:14;17.40;81.30
74364;DHT22;62797;49.740;10.154;2022-10-16T08:55:48;17.40;81.40
74364;DHT22;62797;49.740;10.154;2022-10-16T08:58:21;17.40;81.10
74364;DHT22;62797;49.740;10.154;2022-10-16T09:01:11;17.40;80.50
74364;DHT22;62797;49.740;10.154;2022-10-16T09:06:07;17.40;81.60
74364;DHT22;62797;49.740;10.154;2022-10-16T09:08:58;17.50;82.00
74364;DHT22;62797;49.740;10.154;2022-10-16T09:17:54;17.70;81.40
74364;DHT22;62797;49.740;10.154;2022-10-16T09:22:38;17.90;82.30
74364;DHT22;62797;49.740;10.154;2022-10-16T09:25:16;18.00;81.90
74364;DHT22;62797;49.740;10.154;2022-10-16T09:27:45;18.00;80.40
74364;DHT22;62797;49.740;10.154;2022-10-16T09:30:14;18.00;80.90
74364;DHT22;62797;49.740;10.154;2022-10-16T09:32:41;18.00;80.40
74364;DHT22;62797;49.740;10.154;2022-10-16T09:35:15;18.00;80.30
74364;DHT22;62797;49.740;10.154;2022-10-16T09:37:43;18.00;80.60
74364;DHT22;62797;49.740;10.154;2022-10-16T09:40:34;18.00;81.30
74364;DHT22;62797;49.740;10.154;2022-10-16T09:45:54;18.00;81.00
74364;DHT22;62797;49.740;10.154;2022-10-16T09:48:20;17.90;80.70
74364;DHT22;62797;49.740;10.154;2022-10-16T09:50:55;17.90;81.10
74364;DHT22;62797;49.740;10.154;2022-10-16T09:53:21;18.00;80.20
74364;DHT22;62797;49.740;10.154;2022-10-16T09:55:48;18.10;80.80
74364;DHT22;62797;49.740;10.154;2022-10-16T09:58:14;18.10;80.10
74364;DHT22;62797;49.740;10.154;2022-10-16T10:00:41;18.10;80.80
74364;DHT22;62797;49.740;10.154;2022-10-16T10:03:10;18.30;81.40
74364;DHT22;62797;49.740;10.154;2022-10-16T10:05:39;18.40;81.60
74364;DHT22;62797;49.740;10.154;2022-10-16T10:08:05;18.40;82.30
74364;DHT22;62797;49.740;10.154;2022-10-16T10:10:39;18.40;81.20
74364;DHT22;62797;49.740;10.154;2022-10-16T10:13:20;18.50;80.50
74364;DHT22;62797;49.740;10.154;2022-10-16T10:15:46;18.50;79.70
74364;DHT22;62797;49.740;10.154;2022-10-16T10:18:20;18.50;80.70
74364;DHT22;62797;49.740;10.154;2022-10-16T10:21:01;18.60;80.10
74364;DHT22;62797;49.740;10.154;2022-10-16T10:23:28;18.70;80.50
74364;DHT22;62797;49.740;10.154;2022-10-16T10:31:33;18.90;79.00
74364;DHT22;62797;49.740;10.154;2022-10-16T10:40:11;19.10;78.00
74364;DHT22;62797;49.740;10.154;2022-10-16T10:43:14;19.20;75.00
74364;DHT22;62797;49.740;10.154;2022-10-16T10:45:46;19.10;74.10
74364;DHT22;62797;49.740;10.154;2022-10-16T10:48:28;19.00;74.40
74364;DHT22;62797;49.740;10.154;2022-10-16T10:51:01;18.90;73.80
74364;DHT22;62797;49.740;10.154;2022-10-16T10:53:50;18.80;72.10
74364;DHT22;62797;49.740;10.154;2022-10-16T10:59:31;18.40;75.20
74364;DHT22;62797;49.740;10.154;2022-10-16T11:02:18;18.00;79.60
74364;DHT22;62797;49.740;10.154;2022-10-16T11:05:06;18.00;83.00
74364;DHT22;62797;49.740;10.154;2022-10-16T11:07:47;18.00;83.50
74364;DHT22;62797;49.740;10.154;2022-10-16T11:10:21;18.00;81.80
74364;DHT22;62797;49.740;10.154;2022-10-16T11:12:55;18.10;84.00
74364;DHT22;62797;49.740;10.154;2022-10-16T11:15:30;18.20;84.80
74364;DHT22;62797;49.740;10.154;2022-10-16T11:18:03;18.10;83.10
74364;DHT22;62797;49.740;10.154;2022-10-16T11:20:39;18.10;83.00
74364;DHT22;62797;49.740;10.154;2022-10-16T11:23:14;18.10;84.70
74364;DHT22;62797;49.740;10.154;2022-10-16T11:25:43;18.20;86.80
74364;DHT22;62797;49.740;10.154;2022-10-16T11:28:21;18.30;84.70
74364;DHT22;62797;49.740;10.154;2022-10-16T11:31:09;18.30;85.00
74364;DHT22;62797;49.740;10.154;2022-10-16T11:33:41;18.40;87.40
74364;DHT22;62797;49.740;10.154;2022-10-16T11:36:12;18.60;84.60
74364;DHT22;62797;49.740;10.154;2022-10-16T11:41:29;18.60;84.10
74364;DHT22;62797;49.740;10.154;2022-10-16T11:46:55;18.80;82.90
74364;DHT22;62797;49.740;10.154;2022-10-16T11:49:26;18.80;84.80
74364;DHT22;62797;49.740;10.154;2022-10-16T11:52:06;18.90;86.00
74364;DHT22;62797;49.740;10.154;2022-10-16T11:57:29;18.90;83.80
74364;DHT22;62797;49.740;10.154;2022-10-16T12:02:52;19.10;85.10
74364;DHT22;62797;49.740;10.154;2022-10-16T12:05:59;19.30;83.40
74364;DHT22;62797;49.740;10.154;2022-10-16T12:08:26;19.20;80.80
74364;DHT22;62797;49.740;10.154;2022-10-16T12:10:52;19.20;85.10
74364;DHT22;62797;49.740;10.154;2022-10-16T12:13:46;19.40;85.20
74364;DHT22;62797;49.740;10.154;2022-10-16T12:18:40;19.60;83.30
74364;DHT22;62797;49.740;10.154;2022-10-16T12:21:07;19.60;83.80
74364;DHT22;62797;49.740;10.154;2022-10-16T12:23:36;19.80;86.50
74364;DHT22;62797;49.740;10.154;2022-10-16T12:26:03;19.80;80.10
74364;DHT22;62797;49.740;10.154;2022-10-16T12:28:30;19.70;81.70
74364;DHT22;62797;49.740;10.154;2022-10-16T12:30:59;19.70;81.50
74364;DHT22;62797;49.740;10.154;2022-10-16T12:35:59;20.00;82.90
74364;DHT22;62797;49.740;10.154;2022-10-16T12:38:28;20.10;82.20
74364;DHT22;62797;49.740;10.154;2022-10-16T12:48:33;20.50;80.40
74364;DHT22;62797;49.740;10.154;2022-10-16T12:51:45;20.40;78.40
74364;DHT22;62797;49.740;10.154;2022-10-16T12:53:45;20.30;78.50
74364;DHT22;62797;49.740;10.154;2022-10-16T12:59:14;20.60;79.50
74364;DHT22;62797;49.740;10.154;2022-10-16T13:01:51;20.70;78.10
74364;DHT22;62797;49.740;10.154;2022-10-16T13:04:31;20.70;77.80
74364;DHT22;62797;49.740;10.154;2022-10-16T13:07:10;20.70;77.70
74364;DHT22;62797;49.740;10.154;2022-10-16T13:09:53;20.80;79.50
74364;DHT22;62797;49.740;10.154;2022-10-16T13:12:50;21.10;78.80
74364;DHT22;62797;49.740;10.154;2022-10-16T13:15:31;21.10;74.90
74364;DHT22;62797;49.740;10.154;2022-10-16T13:21:04;21.30;72.30
74364;DHT22;62797;49.740;10.154;2022-10-16T13:31:49;22.10;70.30
74364;DHT22;62797;49.740;10.154;2022-10-16T13:34:18;22.20;65.40
74364;DHT22;62797;49.740;10.154;2022-10-16T13:36:54;22.20;66.50
74364;DHT22;62797;49.740;10.154;2022-10-16T13:39:25;22.40;67.80
74364;DHT22;62797;49.740;10.154;2022-10-16T13:42:21;22.40;62.70
74364;DHT22;62797;49.740;10.154;2022-10-16T13:44:53;22.60;62.40
74364;DHT22;62797;49.740;10.154;2022-10-16T13:47:23;22.50;63.20
74364;DHT22;62797;49.740;10.154;2022-10-16T13:50:22;22.60;60.30
74364;DHT22;62797;49.740;10.154;2022-10-16T13:52:47;22.70;60.10
74364;DHT22;62797;49.740;10.154;2022-10-16T13:55:17;22.60;61.70
74364;DHT22;62797;49.740;10.154;2022-10-16T13:57:44;22.40;61.80
74364;DHT22;62797;49.740;10.154;2022-10-16T14:00:24;22.30;61.30
74364;DHT22;62797;49.740;10.154;2022-10-16T14:03:06;22.10;58.40
74364;DHT22;62797;49.740;10.154;2022-10-16T14:05:33;21.90;61.60
74364;DHT22;62797;49.740;10.154;2022-10-16T14:08:00;21.80;63.40
74364;DHT22;62797;49.740;10.154;2022-10-16T14:10:29;21.80;64.80
74364;DHT22;62797;49.740;10.154;2022-10-16T14:12:59;21.80;65.90
74364;DHT22;62797;49.740;10.154;2022-10-16T14:15:26;21.70;63.40
74364;DHT22;62797;49.740;10.154;2022-10-16T14:17:53;21.60;62.80
74364;DHT22;62797;49.740;10.154;2022-10-16T14:20:19;21.50;63.90
74364;DHT22;62797;49.740;10.154;2022-10-16T14:22:46;21.50;64.20
74364;DHT22;62797;49.740;10.154;2022-10-16T14:30:28;21.50;67.10
74364;DHT22;62797;49.740;10.154;2022-10-16T14:33:01;21.50;68.00
74364;DHT22;62797;49.740;10.154;2022-10-16T14:35:36;21.50;68.30
74364;DHT22;62797;49.740;10.154;2022-10-16T14:38:03;21.50;67.20
74364;DHT22;62797;49.740;10.154;2022-10-16T14:40:31;21.40;66.80
74364;DHT22;62797;49.740;10.154;2022-10-16T14:42:58;21.30;65.70
74364;DHT22;62797;49.740;10.154;2022-10-16T14:45:25;21.20;67.30
74364;DHT22;62797;49.740;10.154;2022-10-16T14:48:06;21.10;68.20
74364;DHT22;62797;49.740;10.154;2022-10-16T14:50:39;21.00;69.10
74364;DHT22;62797;49.740;10.154;2022-10-16T14:53:13;21.00;69.10
74364;DHT22;62797;49.740;10.154;2022-10-16T14:55:39;21.00;68.30
74364;DHT22;62797;49.740;10.154;2022-10-16T14:58:06;20.90;67.60
74364;DHT22;62797;49.740;10.154;2022-10-16T15:00:34;20.90;68.40
74364;DHT22;62797;49.740;10.154;2022-10-16T15:02:59;20.80;68.40
74364;DHT22;62797;49.740;10.154;2022-10-16T15:05:26;20.70;68.20
74364;DHT22;62797;49.740;10.154;2022-10-16T15:07:54;20.70;67.70
74364;DHT22;62797;49.740;10.154;2022-10-16T15:10:21;20.50;68.30
74364;DHT22;62797;49.740;10.154;2022-10-16T15:12:47;20.50;69.20
74364;DHT22;62797;49.740;10.154;2022-10-16T15:17:50;20.30;69.20
74364;DHT22;62797;49.740;10.154;2022-10-16T15:20:19;20.30;69.70
74364;DHT22;62797;49.740;10.154;2022-10-16T15:22:45;20.10;70.30
74364;DHT22;62797;49.740;10.154;2022-10-16T15:27:57;20.00;71.10
74364;DHT22;62797;49.740;10.154;2022-10-16T15:30:23;19.90;71.80
74364;DHT22;62797;49.740;10.154;2022-10-16T15:32:49;19.90;72.30
74364;DHT22;62797;49.740;10.154;2022-10-16T15:35:14;19.90;72.50
74364;DHT22;62797;49.740;10.154;2022-10-16T15:37:40;19.80;73.50
74364;DHT22;62797;49.740;10.154;2022-10-16T15:40:06;19.80;73.70
74364;DHT22;62797;49.740;10.154;2022-10-16T15:42:31;19.80;74.60
74364;DHT22;62797;49.740;10.154;2022-10-16T15:44:57;19.60;75.60
74364;DHT22;62797;49.740;10.154;2022-10-16T15:47:22;19.60;75.50
74364;DHT22;62797;49.740;10.154;2022-10-16T15:49:48;19.60;75.50
74364;DHT22;62797;49.740;10.154;2022-10-16T15:52:13;19.60;75.50
74364;DHT22;62797;49.740;10.154;2022-10-16T15:54:39;19.60;75.70
74364;DHT22;62797;49.740;10.154;2022-10-16T15:57:04;19.50;76.00
74364;DHT22;62797;49.740;10.154;2022-10-16T15:59:30;19.40;76.30
74364;DHT22;62797;49.740;10.154;2022-10-16T16:01:55;19.30;77.10
74364;DHT22;62797;49.740;10.154;2022-10-16T16:04:21;19.20;77.90
74364;DHT22;62797;49.740;10.154;2022-10-16T16:06:46;19.20;78.20
74364;DHT22;62797;49.740;10.154;2022-10-16T16:09:13;19.20;78.30
74364;DHT22;62797;49.740;10.154;2022-10-16T16:11:39;19.20;77.80
74364;DHT22;62797;49.740;10.154;2022-10-16T16:14:05;19.20;78.30
74364;DHT22;62797;49.740;10.154;2022-10-16T16:16:31;19.20;78.60
74364;DHT22;62797;49.740;10.154;2022-10-16T16:19:02;19.20;78.50
74364;DHT22;62797;49.740;10.154;2022-10-16T16:21:28;19.20;79.00
74364;DHT22;62797;49.740;10.154;2022-10-16T16:23:53;19.10;79.30
74364;DHT22;62797;49.740;10.154;2022-10-16T16:26:27;19.20;79.10
74364;DHT22;62797;49.740;10.154;2022-10-16T16:28:55;19.20;79.30
74364;DHT22;62797;49.740;10.154;2022-10-16T16:31:25;19.10;79.50
74364;DHT22;62797;49.740;10.154;2022-10-16T16:33:51;19.10;79.80
74364;DHT22;62797;49.740;10.154;2022-10-16T16:36:17;19.00;79.90
74364;DHT22;62797;49.740;10.154;2022-10-16T16:38:44;19.00;79.90
74364;DHT22;62797;49.740;10.154;2022-10-16T16:43:36;18.90;80.20
74364;DHT22;62797;49.740;10.154;2022-10-16T16:46:02;18.90;80.30
74364;DHT22;62797;49.740;10.154;2022-10-16T16:48:28;18.90;80.90
74364;DHT22;62797;49.740;10.154;2022-10-16T16:50:53;18.80;80.60
74364;DHT22;62797;49.740;10.154;2022-10-16T16:53:19;18.80;80.40
74364;DHT22;62797;49.740;10.154;2022-10-16T16:55:44;18.80;80.60
74364;DHT22;62797;49.740;10.154;2022-10-16T16:58:10;18.80;81.00
74364;DHT22;62797;49.740;10.154;2022-10-16T17:00:35;18.80;81.00
74364;DHT22;62797;49.740;10.154;2022-10-16T17:03:01;18.70;81.00